createdAt,value
2023-05-17T09:15:23.805Z,18.13
2023-05-17T09:17:52.489Z,18.46
2023-05-17T09:20:24.686Z,18.81
2023-05-17T09:22:52.157Z,19.32
2023-05-17T09:25:24.339Z,19.33
2023-05-17T09:27:54.969Z,19.67
2023-05-17T09:30:33.324Z,19.64
2023-05-17T09:33:10.157Z,19.57
2023-05-17T09:35:38.452Z,19.17
2023-05-17T09:38:12.163Z,19.49
2023-05-17T09:40:40.599Z,19.45
2023-05-17T09:43:08.005Z,19.47
2023-05-17T09:45:36.467Z,19.15
2023-05-17T09:48:15.043Z,19.79
2023-05-17T09:50:46.748Z,19.72
2023-05-17T09:53:23.591Z,19.89
2023-05-17T09:55:52.946Z,19.52
2023-05-17T09:58:19.784Z,19.71
2023-05-17T10:00:52.437Z,19.97
2023-05-17T10:03:19.386Z,20.27
2023-05-17T10:05:50.956Z,20.09
2023-05-17T10:08:18.086Z,20.36
2023-05-17T10:10:45.820Z,20.64
2023-05-17T10:13:14.341Z,20.42
2023-05-17T10:15:41.304Z,20.64
2023-05-17T10:18:09.492Z,20.84
2023-05-17T10:20:37.590Z,21.09
2023-05-17T10:23:06.444Z,20.91
2023-05-17T10:25:33.699Z,20.99
2023-05-17T10:28:01.614Z,21.32
2023-05-17T10:30:29.327Z,21.69
2023-05-17T10:32:57.074Z,22.18
2023-05-17T10:35:24.653Z,21.99
2023-05-17T10:37:51.664Z,21.77
2023-05-17T10:40:20.348Z,22.02
2023-05-17T10:42:53.814Z,21.95
2023-05-17T10:45:22.467Z,22.28
2023-05-17T10:47:51.902Z,22.06
2023-05-17T10:50:26.564Z,21.97
2023-05-17T10:52:56.564Z,21.72
2023-05-17T10:55:25.299Z,22.11
2023-05-17T10:58:18.298Z,22.13
2023-05-17T11:00:49.361Z,22.40
2023-05-17T11:03:20.210Z,22.16
2023-05-17T11:06:23.333Z,22.61
2023-05-17T11:09:17.012Z,22.28
2023-05-17T11:12:06.675Z,21.77
2023-05-17T11:14:45.925Z,21.85
2023-05-17T11:17:18.140Z,21.74
2023-05-17T11:19:57.437Z,21.96
2023-05-17T11:22:25.373Z,22.50
2023-05-17T11:24:54.085Z,22.82
2023-05-17T11:27:27.500Z,22.82
2023-05-17T11:29:59.084Z,22.88
2023-05-17T11:32:31.219Z,23.05
2023-05-17T11:35:00.806Z,23.43
2023-05-17T11:37:28.919Z,23.19
2023-05-17T11:40:26.369Z,23.17
2023-05-17T11:43:11.180Z,23.20
2023-05-17T11:45:46.418Z,22.81
2023-05-17T11:48:14.265Z,22.49
2023-05-17T11:50:42.291Z,22.56
2023-05-17T11:53:10.322Z,21.81
2023-05-17T11:55:41.664Z,22.23
2023-05-17T11:58:10.708Z,21.72
2023-05-17T12:00:39.492Z,21.92
2023-05-17T12:03:20.151Z,21.69
2023-05-17T12:05:48.678Z,21.41
2023-05-17T12:08:17.017Z,21.40
2023-05-17T12:10:52.026Z,21.61
2023-05-17T12:13:19.774Z,21.95
2023-05-17T12:15:51.888Z,21.50
2023-05-17T12:18:20.894Z,21.70
2023-05-17T12:20:58.153Z,21.61
2023-05-17T12:23:36.647Z,21.51
2023-05-17T12:26:10.299Z,20.99
2023-05-17T12:28:38.674Z,20.82
2023-05-17T12:31:09.226Z,20.93
2023-05-17T12:33:37.216Z,20.63
2023-05-17T12:36:08.695Z,20.77
2023-05-17T12:38:36.554Z,20.63
2023-05-17T12:41:07.702Z,20.74
2023-05-17T12:43:35.415Z,20.75
2023-05-17T12:46:06.038Z,20.65
2023-05-17T12:48:41.177Z,20.41
2023-05-17T12:51:16.432Z,20.66
2023-05-17T12:54:04.257Z,20.29
2023-05-17T12:56:31.043Z,20.04
2023-05-17T12:59:17.264Z,19.82
2023-05-17T13:01:45.081Z,19.80
2023-05-17T13:04:13.383Z,19.90
2023-05-17T13:06:49.069Z,20.14
2023-05-17T13:09:18.792Z,19.62
2023-05-17T13:11:52.860Z,19.87
2023-05-17T13:14:48.715Z,19.96
2023-05-17T13:17:15.664Z,20.02
2023-05-17T13:19:43.774Z,19.90
2023-05-17T13:22:10.783Z,19.58
2023-05-17T13:24:40.024Z,19.73
2023-05-17T13:27:07.699Z,19.64
2023-05-17T13:29:40.291Z,19.83
2023-05-17T13:32:09.624Z,19.76
2023-05-17T13:34:37.009Z,19.72
